Muskoka Airport
CYQA : now visible

Airfield :











YOU CAN JOIN US ON...

 
LOGIN :

Register | Disclaimer

   EN    FR    IT 

 









Legend :    VFR   Marginal VFR   IFR   Intensive IFR   Very Intensive IFR
Visi :
Ceiling :
>= 8 km
>= 3000ft
5 to 8 km
1000 to 3000 ft
1500m to 5 km
500 to 1000 ft
800 to 1500m
200 to 500 ft
< 800m
< 200 ft
Symbols :   Thunderstorms  Fog  Heavy snow  Heavy precipitations  Wind > 20 kt






- Airport Elevation : 925 ft
- IATA code : YQA


CYQA - Muskoka

CURRENT METAR :
  • 081837Z AUTO 25010KT 2 1/2SM BR OVC003 04/04 A2962 RMK SLP040

EXPIRED METARs :
  • 081800Z AUTO 27010KT 1 1/2SM BR OVC003 04/04 A2961 RMK SLP037
  • 081733Z AUTO 26008KT 230V290 1 1/2SM BR OVC003 05/04 A2961 RMK SLP038
  • 081708Z AUTO 24011KT 220V280 3/4SM BR OVC003 05/05 A2962 RMK SLP039
  • 081648Z AUTO 26008KT 210V280 1 1/4SM BR OVC003 06/05 A2961 RMK SLP035
  • 081633Z AUTO 25007KT 4SM BR OVC003 06/05 A2960 RMK SLP033
  • 081630Z AUTO 23007KT 5SM BR OVC005 06/05 A2960 RMK SLP033
  • 081600Z AUTO 21008KT 170V240 9SM OVC005 06/05 A2960 RMK SLP032
  • 081531Z AUTO 19004KT 160V220 8SM OVC005 06/05 A2960 RMK SLP033

TAF AMD TAF CYQA
Valid from the 08 at 17:00 until the 09 at 02:00 UTC


081707Z 0817/0902 26006KT 1/2SM -RA FG OVC003
TEMPO 0817/0820 6SM BR OVC010
FM082000 27010KT P6SM SCT006 OVC015
TEMPO 0820/0822 4SM -RA -DZ BR BKN006 OVC015
FM082200 26012KT P6SM SCT008 OVC015
BECMG 0900/0902 VRB03KT RMK FCST BASED ON AUTO OBS. NXT FCST BY 082000Z



MET'MAP, your aeronautical weather chart ! - Copyright ORBIFLY December 2007 - Disclaimer

ORBIFLY MET'MAP TEAM :

Programming & Development : Alexandra Zaïnal
Concept & original design : Baudouin d'Aumeries
Assistance for programming : Marc-Olivier Méhu
Technical & hardware support : Manuel Goepfert

Contact : metmap@orbifly.com




SOURCES & CREDITS :

   NOAA       Earth
Advisory